• Join FlightAware (Why Join?)
  • Login
  • US Flag 
11:39PM EDT


 

Airport Tracker/Info


-or-


 

Live Flight TrackerFlight Track Log ✈ UAL33 ✈ 08-Oct-2013 ✈ RJAA / NRT - KLAX

Flight Track Log - Related Links

Times and Time Zones

All times are in EDT time to prevent confusion due to time zone crossing. See the UAL33 flight status page for this flight to view local times or setup timezone preferences in your user account.

Time Position Orientation Groundspeed Altitude Reporting Facility
EDT Latitude Longitude Course Direction KTS MPH feet Rate Location/Type
04:36AM 35.7440 140.3910 147° Southeast 166 191 900  Level FlightAware
04:36AM 35.7300 140.4010 150° Southeast 168 193 1,800 2,340 Climbing FlightAware
04:36AM 35.7160 140.4110 150° Southeast 172 198 2,500 1,980 Climbing FlightAware
04:37AM 35.7010 140.4210 152° Southeast 175 201 3,200 1,620 Climbing FlightAware
04:37AM 35.6850 140.4330 149° Southeast 200 230 3,700 960 Climbing FlightAware
04:37AM 35.6660 140.4460 151° Southeast 234 269 3,900 1,020 Climbing FlightAware
04:38AM 35.6480 140.4600 148° Southeast 251 289 4,400 1,620 Climbing FlightAware
04:38AM 35.6310 140.4720 150° Southeast 266 306 4,900 2,520 Climbing FlightAware
04:38AM 35.6090 140.4880 149° Southeast 270 311 5,900 2,520 Climbing FlightAware
04:38AM 35.5960 140.4970 151° Southeast 268 308 6,300 1,500 Climbing FlightAware
04:39AM 35.5700 140.5150 151° Southeast 277 319 6,800 1,020 Climbing FlightAware
04:39AM 35.5570 140.5250 148° Southeast 277 319 6,900 180 Climbing FlightAware
04:39AM 35.5350 140.5410 149° Southeast 277 319 6,900  Level FlightAware
04:40AM 35.5170 140.5670 130° Southeast 283 326 6,900  Level FlightAware
04:40AM 35.5140 140.5810 105° East 287 330 6,900  Level FlightAware
04:40AM 35.5130 140.5930 96° East 288 331 6,900  Level FlightAware
04:40AM 35.5120 140.6260 92° East 289 333 6,900  Level FlightAware
04:41AM 35.5110 140.6460 94° East 290 334 6,900  Level FlightAware
04:41AM 35.5090 140.6850 94° East 288 331 6,900  Level FlightAware
04:41AM 35.5080 140.7210 92° East 288 331 6,900  Level FlightAware
04:42AM 35.5070 140.7510 92° East 288 331 6,900  Level FlightAware
04:42AM 35.5050 140.7850 94° East 288 331 6,900 660 Level FlightAware
04:42AM 35.5040 140.8130 93° East 290 334 7,400 1,800 Climbing FlightAware
04:42AM 35.5030 140.8320 94° East 292 336 7,800 2,520 Climbing FlightAware
04:43AM 35.5010 140.8760 93° East 297 342 8,900 2,520 Climbing FlightAware
04:43AM 35.5000 140.9120 92° East 304 350 9,700 1,740 Climbing FlightAware
04:44AM 35.4970 140.9740 93° East 334 384 10,500 1,320 Climbing FlightAware
04:44AM 35.4940 141.0400 93° East 361 415 11,300 1,920 Climbing FlightAware
04:45AM 35.4860 141.1150 97° East 371 427 12,800 2,400 Climbing FlightAware
04:46AM 35.4620 141.1970 110° East 381 438 14,400 2,340 Climbing FlightAware
04:46AM 35.4420 141.2620 111° Southeast 385 443 15,700 2,220 Climbing FlightAware
04:47AM 35.4190 141.3380 110° East 394 453 17,000 2,040 Climbing FlightAware
04:47AM 35.3950 141.4140 111° Southeast 407 468 18,200 1,980 Climbing FlightAware
04:48AM 35.3720 141.4900 110° East 416 479 19,300 1,800 Climbing FlightAware
04:49AM 35.3490 141.5660 110° East 423 487 20,300 1,800 Climbing FlightAware
04:49AM 35.3250 141.6420 111° Southeast 428 493 21,400 1,860 Climbing FlightAware
04:50AM 35.2990 141.7340 109° East 437 503 22,600 1,740 Climbing FlightAware
04:50AM 35.3040 141.8000 85° East 447 514 23,300 1,500 Climbing FlightAware
04:50AM 35.3160 141.8290 63° Northeast 451 519 23,600 1,320 Climbing FlightAware
04:51AM 35.3680 141.8870 42° Northeast 445 512 24,400 1,500 Climbing FlightAware
04:52AM 35.4320 141.9470 37° Northeast 459 528 25,400 1,560 Climbing FlightAware
04:52AM 35.4640 141.9930 49° Northeast 466 536 26,000 1,380 Climbing FlightAware
04:53AM 35.5090 142.0810 58° Northeast 469 540 26,900 1,440 Climbing FlightAware
04:53AM 35.5520 142.1680 59° Northeast 474 545 27,800 1,260 Climbing FlightAware
04:54AM 35.5870 142.2390 59° Northeast 482 555 28,300 900 Climbing FlightAware
04:54AM 35.6340 142.3350 59° Northeast 497 572 28,900 1,080 Climbing FlightAware
04:55AM 35.6760 142.4200 59° Northeast 499 574 29,700 1,260 Climbing FlightAware
04:56AM 35.7120 142.4940 59° Northeast 503 579 30,300 1,080 Climbing FlightAware
04:56AM 35.7600 142.5920 59° Northeast 507 583 31,000 1,020 Climbing FlightAware
04:57AM 35.7970 142.6660 58° Northeast 509 586 31,500 900 Climbing FlightAware
04:57AM 35.8390 142.7540 59° Northeast 513 590 32,000 840 Climbing FlightAware
04:58AM 35.8890 142.8550 59° Northeast 518 596 32,600 900 Climbing FlightAware
04:59AM 35.9250 142.9310 60° Northeast 527 606 33,100 840 Climbing FlightAware
04:59AM 35.9830 143.0500 59° Northeast 532 612 33,700 900 Climbing FlightAware
05:00AM 36.0270 143.1430 60° Northeast 534 615 34,300 1,080 Climbing FlightAware
05:00AM 36.0710 143.2340 59° Northeast 531 611 35,000 1,200 Climbing FlightAware
05:01AM 36.1050 143.3040 59° Northeast 530 610 35,600 1,020 Climbing FlightAware
05:02AM 36.1770 143.4540 59° Northeast 525 604 36,500 840 Climbing FlightAware
05:02AM 36.2260 143.5570 59° Northeast 528 608 37,000 480 Climbing FlightAware
05:03AM 36.2670 143.6430 59° Northeast 523 602 37,100 480 Climbing FlightAware
05:04AM 36.3120 143.7390 60° Northeast 523 602 37,600 420 Climbing FlightAware
05:04AM 36.3580 143.8380 60° Northeast 521 600 37,700 720 Climbing FlightAware
05:05AM 36.4010 143.9270 59° Northeast 492 566 38,500 1,020 Climbing FlightAware
05:06AM 36.4470 144.0250 60° Northeast 522 601 38,900 300 Climbing FlightAware
05:06AM 36.5050 144.1480 60° Northeast 522 601 39,000 60 Climbing FlightAware
05:07AM 36.5550 144.2570 60° Northeast 521 600 39,000  Level FlightAware
05:08AM 36.6050 144.3650 60° Northeast 520 598 39,000  Level FlightAware
05:09AM 36.6710 144.5060 60° Northeast 520 598 39,000  Level FlightAware
05:09AM 36.7210 144.6140 60° Northeast 520 598 39,000  Level FlightAware
05:10AM 36.7550 144.6890 60° Northeast 520 598 39,000  Level FlightAware
05:11AM 36.8150 144.8190 60° Northeast 522 601 39,000  Level FlightAware
05:11AM 36.8670 144.9340 60° Northeast 523 602 39,000  Level FlightAware
05:12AM 36.9210 145.0530 60° Northeast 523 602 39,000  Level FlightAware
05:13AM 36.9650 145.1470 60° Northeast 523 602 39,000  Level FlightAware
05:13AM 37.0200 145.2720 61° Northeast 522 601 39,000  Level FlightAware
05:14AM 37.0650 145.3700 60° Northeast 522 601 39,000  Level FlightAware
05:15AM 37.1030 145.4520 60° Northeast 522 601 39,000  Level FlightAware
05:17AM 37.2397 145.7154 43° Northeast  Level FlightAware Approximate
05:18AM 37.3461 145.8392 43° Northeast  Level FlightAware Approximate
05:19AM 37.4524 145.9634 43° Northeast  Level FlightAware Approximate
05:20AM 37.5586 146.0880 43° Northeast  Level FlightAware Approximate
05:21AM 37.6646 146.2129 43° Northeast  Level FlightAware Approximate
05:22AM 37.7705 146.3381 43° Northeast  Level FlightAware Approximate
05:23AM 37.8763 146.4637 43° Northeast  Level FlightAware Approximate
05:24AM 37.9819 146.5897 43° Northeast  Level FlightAware Approximate
05:25AM 38.0874 146.7160 43° Northeast  Level FlightAware Approximate
05:26AM 38.1927 146.8427 43° Northeast  Level FlightAware Approximate
05:27AM 38.2980 146.9698 43° Northeast  Level FlightAware Approximate
05:28AM 38.4030 147.0973 44° Northeast  Level FlightAware Approximate
05:29AM 38.5080 147.2251 44° Northeast  Level FlightAware Approximate
05:30AM 38.6128 147.3533 44° Northeast  Level FlightAware Approximate
05:31AM 38.7175 147.4818 44° Northeast  Level FlightAware Approximate
05:32AM 38.8220 147.6107 44° Northeast  Level FlightAware Approximate
05:33AM 38.9264 147.7400 44° Northeast  Level FlightAware Approximate
05:34AM 39.0306 147.8697 44° Northeast  Level FlightAware Approximate
05:35AM 39.1347 147.9998 44° Northeast  Level FlightAware Approximate
05:36AM 39.2387 148.1303 44° Northeast  Level FlightAware Approximate
05:37AM 39.3425 148.2611 44° Northeast  Level FlightAware Approximate
05:38AM 39.4461 148.3923 44° Northeast  Level FlightAware Approximate
05:39AM 39.5496 148.5240 44° Northeast  Level FlightAware Approximate
05:40AM 39.6530 148.6560 44° Northeast  Level FlightAware Approximate
05:41AM 39.7562 148.7884 45° Northeast  Level FlightAware Approximate
05:42AM 39.8593 148.9212 45° Northeast  Level FlightAware Approximate
05:43AM 39.9622 149.0544 45° Northeast  Level FlightAware Approximate
05:44AM 40.0649 149.1880 45° Northeast  Level FlightAware Approximate
05:45AM 40.1675 149.3221 45° Northeast  Level FlightAware Approximate
05:46AM 40.2700 149.4565 45° Northeast  Level FlightAware Approximate
05:47AM 40.3723 149.5913 45° Northeast  Level FlightAware Approximate
05:48AM 40.4744 149.7265 45° Northeast  Level FlightAware Approximate
05:49AM 40.5765 149.8620 45° Northeast  Level FlightAware Approximate
05:50AM 40.6784 149.9980 45° Northeast  Level FlightAware Approximate
05:51AM 40.7801 150.1344 45° Northeast  Level FlightAware Approximate
05:52AM 40.8817 150.2711 45° Northeast  Level FlightAware Approximate
05:53AM 40.9831 150.4084 46° Northeast  Level FlightAware Approximate
05:54AM 41.0843 150.5460 46° Northeast  Level FlightAware Approximate
05:55AM 41.1854 150.6841 46° Northeast  Level FlightAware Approximate
05:56AM 41.2863 150.8226 46° Northeast  Level FlightAware Approximate
05:57AM 41.3871 150.9615 46° Northeast  Level FlightAware Approximate
05:58AM 41.4877 151.1008 46° Northeast  Level FlightAware Approximate
05:59AM 41.5881 151.2406 46° Northeast  Level FlightAware Approximate
06:00AM 41.6883 151.3808 46° Northeast  Level FlightAware Approximate
06:01AM 41.7884 151.5215 46° Northeast  Level FlightAware Approximate
06:02AM 41.8883 151.6626 46° Northeast  Level FlightAware Approximate
06:03AM 41.9880 151.8041 47° Northeast  Level FlightAware Approximate
06:04AM 42.0876 151.9461 47° Northeast  Level FlightAware Approximate
06:05AM 42.1870 152.0885 47° Northeast  Level FlightAware Approximate
06:06AM 42.2862 152.2314 47° Northeast  Level FlightAware Approximate
06:07AM 42.3852 152.3748 47° Northeast  Level FlightAware Approximate
06:08AM 42.4840 152.5185 47° Northeast  Level FlightAware Approximate
06:09AM 42.5827 152.6628 47° Northeast  Level FlightAware Approximate
06:10AM 42.6811 152.8075 47° Northeast  Level FlightAware Approximate
06:11AM 42.7794 152.9526 47° Northeast  Level FlightAware Approximate
06:12AM 42.8776 153.0982 47° Northeast  Level FlightAware Approximate
06:13AM 42.9755 153.2443 47° Northeast  Level FlightAware Approximate
06:14AM 43.0732 153.3908 48° Northeast  Level FlightAware Approximate
06:15AM 43.1708 153.5378 48° Northeast  Level FlightAware Approximate
06:16AM 43.2682 153.6853 48° Northeast  Level FlightAware Approximate
06:17AM 43.3653 153.8333 48° Northeast  Level FlightAware Approximate
06:18AM 43.4623 153.9817 48° Northeast  Level FlightAware Approximate
06:19AM 43.5591 154.1306 48° Northeast  Level FlightAware Approximate
06:20AM 43.6557 154.2800 48° Northeast  Level FlightAware Approximate
06:21AM 43.7521 154.4298 48° Northeast  Level FlightAware Approximate
06:22AM 43.8483 154.5802 48° Northeast  Level FlightAware Approximate
06:23AM 43.9444 154.7310 48° Northeast  Level FlightAware Approximate
06:24AM 44.0402 154.8823 49° Northeast  Level FlightAware Approximate
06:25AM 44.1358 155.0341 49° Northeast  Level FlightAware Approximate
06:26AM 44.2296 155.1883 50° Northeast  Level FlightAware Approximate
06:27AM 44.3224 155.3439 50° Northeast  Level FlightAware Approximate
06:28AM 44.4151 155.5000 50° Northeast  Level FlightAware Approximate
06:29AM 44.5075 155.6565 50° Northeast  Level FlightAware Approximate
06:30AM 44.5997 155.8136 50° Northeast  Level FlightAware Approximate
06:31AM 44.6917 155.9712 51° Northeast  Level FlightAware Approximate
06:32AM 44.7835 156.1292 51° Northeast  Level FlightAware Approximate
06:33AM 44.8751 156.2878 51° Northeast  Level FlightAware Approximate
06:34AM 44.9664 156.4469 51° Northeast  Level FlightAware Approximate
06:35AM 45.0575 156.6065 51° Northeast  Level FlightAware Approximate
06:36AM 45.1484 156.7666 51° Northeast  Level FlightAware Approximate
06:37AM 45.2381 156.9254 51° Northeast  Level FlightAware Approximate
06:38AM 45.3276 157.0848 51° Northeast  Level FlightAware Approximate
06:39AM 45.4169 157.2447 51° Northeast  Level FlightAware Approximate
06:40AM 45.5059 157.4051 52° Northeast  Level FlightAware Approximate
06:41AM 45.5947 157.5660 52° Northeast  Level FlightAware Approximate
06:42AM 45.6836 157.7271 52° Northeast  Level FlightAware Approximate
06:43AM 45.7726 157.8883 52° Northeast  Level FlightAware Approximate
06:44AM 45.8614 158.0500 52° Northeast  Level FlightAware Approximate
06:45AM 45.9500 158.2121 52° Northeast  Level FlightAware Approximate
06:46AM 46.0384 158.3748 52° Northeast  Level FlightAware Approximate
06:47AM 46.1265 158.5381 52° Northeast  Level FlightAware Approximate
06:48AM 46.2144 158.7018 52° Northeast  Level FlightAware Approximate
06:49AM 46.3020 158.8661 52° Northeast  Level FlightAware Approximate
06:50AM 46.3895 159.0309 52° Northeast  Level FlightAware Approximate
06:51AM 46.4766 159.1962 53° Northeast  Level FlightAware Approximate
06:52AM 46.5636 159.3620 53° Northeast  Level FlightAware Approximate
06:53AM 46.6503 159.5284 53° Northeast  Level FlightAware Approximate
06:54AM 46.7368 159.6954 53° Northeast  Level FlightAware Approximate
06:55AM 46.8230 159.8628 53° Northeast  Level FlightAware Approximate
06:56AM 46.9090 160.0308 53° Northeast  Level FlightAware Approximate
06:57AM 46.9947 160.1993 53° Northeast  Level FlightAware Approximate
06:58AM 47.0802 160.3684 53° Northeast  Level FlightAware Approximate
06:59AM 47.1654 160.5380 53° Northeast  Level FlightAware Approximate
07:00AM 47.2504 160.7082 54° Northeast  Level FlightAware Approximate
07:01AM 47.3351 160.8789 54° Northeast  Level FlightAware Approximate
07:01AM 47.5500 161.3333 55° Northeast 574 661 39,000  Level Anchorage Center
07:02AM 47.4196 161.0501 54° Northeast  Level FlightAware Approximate
07:03AM 47.5038 161.2219 54° Northeast  Level FlightAware Approximate
07:04AM 47.5872 161.3948 55° Northeast  Level FlightAware Approximate
07:05AM 47.6698 161.5689 55° Northeast  Level FlightAware Approximate
07:05AM 47.8667 162.0167 55° Northeast 573 659 39,000  Level Anchorage Center
07:06AM 47.7522 161.7435 55° Northeast  Level FlightAware Approximate
07:07AM 47.8343 161.9187 55° Northeast  Level FlightAware Approximate
07:08AM 48.1633 162.6395 56° Northeast 574 661 39,000  Level FlightAware Transoceanic
07:09AM 48.2497 162.8286 56° Northeast 574 661 39,000  Level FlightAware Transoceanic
07:10AM 48.3358 163.0184 56° Northeast 574 661 39,000  Level FlightAware Transoceanic
07:11AM 48.3912 163.1563 56° Northeast 573 659 39,000  Level FlightAware Transoceanic
07:12AM 48.4775 163.3485 56° Northeast 573 659 39,000  Level FlightAware Transoceanic
07:13AM 48.5635 163.5413 56° Northeast 573 659 39,000  Level FlightAware Transoceanic
07:14AM 48.6492 163.7348 56° Northeast 573 659 39,000  Level FlightAware Transoceanic
07:14AM 48.7333 163.9000 56° Northeast 565 650 39,000  Level Anchorage Center
07:15AM 48.7345 163.9290 56° Northeast 573 659 39,000  Level FlightAware Transoceanic
07:16AM 48.8195 164.1238 57° Northeast 573 659 39,000  Level FlightAware Transoceanic
07:17AM 48.9042 164.3193 57° Northeast 573 659 39,000  Level FlightAware Transoceanic
07:18AM 48.9886 164.5155 57° Northeast 573 659 39,000  Level FlightAware Transoceanic
07:19AM 49.0726 164.7123 57° Northeast 573 659 39,000  Level FlightAware Transoceanic
07:20AM 49.2250 165.0504 57° Northeast 565 650 39,000  Level FlightAware Transoceanic
07:21AM 49.3059 165.2444 58° Northeast 565 650 39,000  Level FlightAware Transoceanic
07:22AM 49.3864 165.4390 58° Northeast 565 650 39,000  Level FlightAware Transoceanic
07:23AM 49.4665 165.6342 58° Northeast 565 650 39,000  Level FlightAware Transoceanic
07:24AM 49.5464 165.8301 58° Northeast 565 650 39,000  Level FlightAware Transoceanic
07:24AM 49.5500 165.8333 58° Northeast 564 649 39,000  Level Anchorage Center
07:25AM 49.6259 166.0266 58° Northeast 565 650 39,000  Level FlightAware Transoceanic
07:26AM 49.7051 166.2237 58° Northeast 565 650 39,000  Level FlightAware Transoceanic
07:26AM 49.7000 166.2167 58° Northeast 560 644 39,000  Level Anchorage Center
07:27AM 49.7840 166.4215 58° Northeast 565 650 39,000  Level FlightAware Transoceanic
07:28AM 49.8625 166.6199 59° Northeast 565 650 39,000  Level FlightAware Transoceanic
07:29AM 49.9406 166.8190 59° Northeast 565 650 39,000  Level FlightAware Transoceanic
07:30AM 50.0212 167.0213 59° Northeast 564 649 39,000  Level FlightAware Transoceanic
07:31AM 50.0985 167.2216 59° Northeast 564 649 39,000  Level FlightAware Transoceanic
07:32AM 50.1894 167.4673 59° Northeast 560 644 39,000  Level FlightAware Transoceanic
07:33AM 50.2697 167.6782 59° Northeast 560 644 39,000  Level FlightAware Transoceanic
07:33AM 50.3167 167.8167 59° Northeast 557 641 39,000  Level Anchorage Center
07:34AM 50.3495 167.8898 60° Northeast 560 644 39,000  Level FlightAware Transoceanic
07:35AM 50.4290 168.1022 60° Northeast 560 644 39,000  Level FlightAware Transoceanic
07:36AM 50.5081 168.3152 60° Northeast 560 644 39,000  Level FlightAware Transoceanic
07:37AM 50.5868 168.5290 60° Northeast 560 644 39,000  Level FlightAware Transoceanic
07:38AM 50.6651 168.7435 60° Northeast 560 644 39,000  Level FlightAware Transoceanic
07:39AM 50.7431 168.9586 60° Northeast 560 644 39,000  Level FlightAware Transoceanic
07:40AM 50.8013 169.1297 60° Northeast 557 641 39,000  Level FlightAware Transoceanic
07:41AM 50.8807 169.3511 61° Northeast 557 641 39,000  Level FlightAware Transoceanic
07:42AM 50.9596 169.5733 61° Northeast 557 641 39,000  Level FlightAware Transoceanic
07:43AM 51.0381 169.7963 61° Northeast 557 641 39,000  Level FlightAware Transoceanic
07:43AM 51.0500 169.8333 61° Northeast 556 640 39,000  Level Anchorage Center
07:44AM 51.1161 170.0200 61° Northeast 557 641 39,000  Level FlightAware Transoceanic
07:45AM 51.1938 170.2445 61° Northeast 557 641 39,000  Level FlightAware Transoceanic
07:46AM 51.2710 170.4698 61° Northeast 557 641 39,000  Level FlightAware Transoceanic
07:47AM 51.3478 170.6958 62° Northeast 557 641 39,000  Level FlightAware Transoceanic
07:48AM 51.4241 170.9225 62° Northeast 557 641 39,000  Level FlightAware Transoceanic
07:49AM 51.5000 171.1500 82° East 556 640 39,000  Level FlightAware Transoceanic
07:49AM 51.5000 171.1500 82° East 559 643 39,000  Level Anchorage Center
07:50AM 51.5212 171.3819 82° East 556 640 39,000  Level FlightAware Transoceanic
07:51AM 51.5419 171.6140 82° East 556 640 39,000  Level FlightAware Transoceanic
07:52AM 51.5621 171.8463 82° East 556 640 39,000  Level FlightAware Transoceanic
07:53AM 51.5819 172.0788 82° East 556 640 39,000  Level FlightAware Transoceanic
07:53AM 51.5833 171.9833 83° East 552 635 39,000  Level Anchorage Center
07:54AM 51.6012 172.3115 82° East 556 640 39,000  Level FlightAware Transoceanic
07:55AM 51.6201 172.5444 83° East 556 640 39,000  Level FlightAware Transoceanic
07:56AM 51.6275 172.6377 83° East 559 643 39,000  Level FlightAware Transoceanic
07:57AM 51.6469 172.8864 83° East 559 643 39,000  Level FlightAware Transoceanic
07:58AM 51.6659 173.1353 83° East 559 643 39,000  Level FlightAware Transoceanic
07:59AM 51.6923 173.4301 84° East 552 635 39,000  Level FlightAware Transoceanic
08:00AM 51.7087 173.6719 84° East 552 635 39,000  Level FlightAware Transoceanic
08:01AM 51.7246 173.9139 84° East 552 635 39,000  Level FlightAware Transoceanic
08:02AM 51.7400 174.1560 84° East 552 635 39,000  Level FlightAware Transoceanic
08:02AM 51.7500 174.3167 84° East 557 641 39,000  Level Anchorage Center
08:03AM 51.7550 174.3983 84° East 552 635 39,000  Level FlightAware Transoceanic
08:04AM 51.7694 174.6407 85° East 552 635 39,000  Level FlightAware Transoceanic
08:05AM 51.7833 174.8833 85° East 552 635 39,000  Level FlightAware Transoceanic
08:05AM 51.7833 174.8833 85° East 547 629 39,000  Level Anchorage Center
08:06AM 51.7965 175.1291 85° East 552 635 39,000  Level FlightAware Transoceanic
08:07AM 51.8092 175.3750 85° East 552 635 39,000  Level FlightAware Transoceanic
08:08AM 51.8213 175.6211 86° East 552 635 39,000  Level FlightAware Transoceanic
08:09AM 51.8329 175.8673 86° East 557 641 39,000  Level FlightAware Transoceanic
08:10AM 51.8440 176.1136 86° East 557 641 39,000  Level FlightAware Transoceanic
08:11AM 51.8546 176.3600 86° East 547 629 39,000  Level FlightAware Transoceanic
08:12AM 51.8647 176.6066 86° East 547 629 39,000  Level FlightAware Transoceanic
08:12AM 51.8667 176.6333 87° East 553 636 39,000  Level Anchorage Center
08:13AM 51.8743 176.8532 87° East 547 629 39,000  Level FlightAware Transoceanic
08:14AM 51.8833 177.1000 84° East 547 629 39,000  Level FlightAware Transoceanic
08:14AM 51.8833 177.1000 84° East 547 629 39,000  Level Anchorage Center
08:15AM 51.8985 177.3416 84° East 547 629 39,000  Level FlightAware Transoceanic
08:16AM 51.9133 177.5833 84° East 547 629 39,000  Level FlightAware Transoceanic
08:17AM 51.9275 177.8252 85° East 547 629 39,000  Level FlightAware Transoceanic
08:18AM 51.9412 178.0672 85° East 553 636 39,000  Level FlightAware Transoceanic
08:19AM 51.9545 178.3094 85° East 553 636 39,000  Level FlightAware Transoceanic
08:20AM 51.9687 178.5797 85° East 547 629 39,000  Level FlightAware Transoceanic
08:21AM 51.9811 178.8269 85° East 547 629 39,000  Level FlightAware Transoceanic
08:21AM 52.0000 178.9667 86° East 541 623 39,000  Level Anchorage Center
08:22AM 51.9930 179.0741 86° East 547 629 39,000  Level FlightAware Transoceanic
08:23AM 52.0043 179.3215 86° East 547 629 39,000  Level FlightAware Transoceanic
08:24AM 52.0152 179.5691 86° East 547 629 39,000  Level FlightAware Transoceanic
08:25AM 52.0255 179.8167 86° East 547 629 39,000  Level FlightAware Transoceanic
08:26AM 52.0354 -179.9355 86° East 547 629 39,000  Level FlightAware Transoceanic
08:27AM 52.0447 -179.6877 87° East 547 629 39,000  Level FlightAware Transoceanic
08:28AM 52.0596 -179.5658 87° East 541 623 39,000  Level FlightAware Transoceanic
08:29AM 52.0677 -179.3209 87° East 541 623 39,000  Level FlightAware Transoceanic
08:30AM 52.0754 -179.0759 87° East 541 623 39,000  Level FlightAware Transoceanic
08:31AM 52.0825 -178.8307 87° East 541 623 39,000  Level FlightAware Transoceanic
08:31AM 52.0833 -178.7167 87° East 543 625 39,000  Level Anchorage Center
08:32AM 52.0891 -178.5856 88° East 541 623 39,000  Level FlightAware Transoceanic
08:33AM 52.0952 -178.3403 88° East 541 623 39,000  Level FlightAware Transoceanic
08:34AM 52.1008 -178.0950 88° East 541 623 39,000  Level FlightAware Transoceanic
08:35AM 52.1059 -177.8496 88° East 541 623 39,000  Level FlightAware Transoceanic
08:36AM 52.1105 -177.6042 88° East 541 623 39,000  Level FlightAware Transoceanic
08:37AM 52.1142 -177.2636 89° East 543 625 39,000  Level FlightAware Transoceanic
08:38AM 52.1175 -177.0212 89° East 543 625 39,000  Level FlightAware Transoceanic
08:39AM 52.1204 -176.7788 89° East 543 625 39,000  Level FlightAware Transoceanic
08:40AM 52.1228 -176.5364 89° East 543 625 39,000  Level FlightAware Transoceanic
08:41AM 52.1247 -176.2940 89° East 543 625 39,000  Level FlightAware Transoceanic
08:41AM 52.1167 -176.3833 89° East 545 627 39,000  Level Anchorage Center
08:42AM 52.1262 -176.0515 90° East 543 625 39,000  Level FlightAware Transoceanic
08:43AM 52.1271 -175.8091 90° East 543 625 39,000  Level FlightAware Transoceanic
08:44AM 52.1275 -175.5666 90° East 543 625 39,000  Level FlightAware Transoceanic
08:45AM 52.1274 -175.3241 90° East 543 625 39,000  Level FlightAware Transoceanic
08:46AM 52.1268 -175.0816 90° East 543 625 39,000  Level FlightAware Transoceanic
08:47AM 52.1204 -174.9081 90° East 545 627 39,000  Level FlightAware Transoceanic
08:48AM 52.1192 -174.6622 91° East 545 627 39,000  Level FlightAware Transoceanic
08:49AM 52.1175 -174.4164 91° East 545 627 39,000  Level FlightAware Transoceanic
08:50AM 52.1153 -174.1705 91° East 545 627 39,000  Level FlightAware Transoceanic
08:50AM 52.1167 -174.0500 91° East 545 627 39,000  Level Anchorage Center
08:51AM 52.1126 -173.9247 91° East 545 627 39,000  Level FlightAware Transoceanic
08:52AM 52.1094 -173.6789 91° East 545 627 39,000  Level FlightAware Transoceanic
08:53AM 52.1057 -173.4332 92° East 545 627 39,000  Level FlightAware Transoceanic
08:54AM 52.1015 -173.1875 92° East 545 627 39,000  Level FlightAware Transoceanic
08:55AM 52.0967 -172.9418 92° East 545 627 39,000  Level FlightAware Transoceanic
08:56AM 52.0914 -172.6963 92° East 545 627 39,000  Level FlightAware Transoceanic
08:57AM 52.0854 -172.3799 92° East 545 627 39,000  Level FlightAware Transoceanic
08:58AM 52.0791 -172.1415 93° East 545 627 39,000  Level FlightAware Transoceanic
08:59AM 52.0722 -171.9032 93° East 545 627 39,000  Level FlightAware Transoceanic
09:00AM 52.0648 -171.6650 93° East 545 627 39,000  Level FlightAware Transoceanic
09:00AM 52.0667 -171.7167 93° East 539 620 39,000  Level Anchorage Center
09:01AM 52.0570 -171.4269 93° East 545 627 39,000  Level FlightAware Transoceanic
09:02AM 52.0487 -171.1888 93° East 545 627 39,000  Level FlightAware Transoceanic
09:03AM 52.0399 -170.9508 94° East 545 627 39,000  Level FlightAware Transoceanic
09:04AM 52.0307 -170.7130 94° East 545 627 39,000  Level FlightAware Transoceanic
09:05AM 52.0209 -170.4752 94° East 545 627 39,000  Level FlightAware Transoceanic
09:06AM 52.0111 -170.2449 94° East 539 620 39,000  Level FlightAware Transoceanic
09:07AM 52.0000 -170.0000 86° East 539 620 39,000  Level FlightAware Transoceanic
09:07AM 52.0000 -170.0000 86° East 555 639 39,000  Level Anchorage Center
09:08AM 52.0101 -169.7568 86° East 539 620 39,000  Level FlightAware Transoceanic
09:09AM 52.0196 -169.5135 86° East 539 620 39,000  Level FlightAware Transoceanic
09:09AM 52.0333 -169.3667 87° East 551 634 39,000  Level Anchorage Center
09:10AM 52.0287 -169.2701 87° East 539 620 39,000  Level FlightAware Transoceanic
09:11AM 52.0373 -169.0266 87° East 539 620 39,000  Level FlightAware Transoceanic
09:12AM 52.0453 -168.7831 87° East 539 620 39,000  Level FlightAware Transoceanic
09:13AM 52.0529 -168.5394 87° East 539 620 39,000  Level FlightAware Transoceanic
09:14AM 52.0611 -168.2530 87° East 555 639 39,000  Level FlightAware Transoceanic
09:15AM 52.0678 -168.0030 88° East 555 639 39,000  Level FlightAware Transoceanic
09:16AM 52.0784 -167.8492 88° East 551 634 39,000  Level FlightAware Transoceanic
09:17AM 52.0840 -167.5960 88° East 551 634 39,000  Level FlightAware Transoceanic
09:18AM 52.0891 -167.3428 88° East 551 634 39,000  Level FlightAware Transoceanic
09:19AM 52.0936 -167.0895 88° East 551 634 39,000  Level FlightAware Transoceanic
09:19AM 52.0833 -166.9833 88° East 557 641 39,000  Level Anchorage Center
09:20AM 52.0976 -166.8361 89° East 551 634 39,000  Level FlightAware Transoceanic
09:21AM 52.1011 -166.5827 89° East 551 634 39,000  Level FlightAware Transoceanic
09:22AM 52.1040 -166.3293 89° East 551 634 39,000  Level FlightAware Transoceanic
09:23AM 52.1063 -166.0758 89° East 551 634 39,000  Level FlightAware Transoceanic
09:24AM 52.1081 -165.8224 89° East 551 634 39,000  Level FlightAware Transoceanic
09:25AM 52.1003 -165.4857 90° East 557 641 39,000  Level FlightAware Transoceanic
09:26AM 52.1012 -165.2361 90° East 557 641 39,000  Level FlightAware Transoceanic
09:27AM 52.1017 -164.9864 90° East 557 641 39,000  Level FlightAware Transoceanic
09:28AM 52.1016 -164.7367 90° East 557 641 39,000  Level FlightAware Transoceanic
09:29AM 52.1010 -164.4870 90° East 557 641 39,000  Level FlightAware Transoceanic
09:30AM 52.0998 -164.2373 91° East 557 641 39,000  Level FlightAware Transoceanic
09:31AM 52.0982 -163.9877 91° East 557 641 39,000  Level FlightAware Transoceanic
09:32AM 52.0960 -163.7380 91° East 557 641 39,000  Level FlightAware Transoceanic
09:33AM 52.0933 -163.4884 91° East 557 641 39,000  Level FlightAware Transoceanic
09:34AM 52.0900 -163.2388 91° East 557 641 39,000  Level FlightAware Transoceanic
09:35AM 52.0863 -162.9893 92° East 557 641 39,000  Level FlightAware Transoceanic
09:36AM 52.0820 -162.7398 92° East 557 641 39,000  Level FlightAware Transoceanic
09:36AM 52.0833 -162.7333 92° East 568 654 39,000  Level Oakland Oceanic (ODAPS)
09:37AM 52.0771 -162.4904 92° East 557 641 39,000  Level FlightAware Transoceanic
09:38AM 52.0718 -162.2410 92° East 557 641 39,000  Level FlightAware Transoceanic
09:39AM 52.0659 -161.9916 92° East 557 641 39,000  Level FlightAware Transoceanic
09:40AM 52.0595 -161.7424 92° East 557 641 39,000  Level FlightAware Transoceanic
09:41AM 52.0526 -161.4932 93° East 557 641 39,000  Level FlightAware Transoceanic
09:42AM 52.0457 -161.2411 93° East 568 654 39,000  Level FlightAware Transoceanic
09:42AM 52.0333 -161.0833 95° East 580 667 39,000  Level Anchorage Center
09:43AM 52.0376 -160.9927 93° East 568 654 39,000  Level FlightAware Transoceanic
09:43AM 52.0167 -160.8333 96° East 550 633 39,000  Level Anchorage Center
09:44AM 52.0290 -160.7444 93° East 568 654 39,000  Level FlightAware Transoceanic
09:44AM 52.0167 -160.5833 90° East 550 633 39,000  Level Anchorage Center
09:45AM 52.0199 -160.4962 94° East 568 654 39,000  Level FlightAware Transoceanic
09:45AM 52.0000 -160.3333 96° East 550 633 39,000  Level Anchorage Center
09:46AM 52.0102 -160.2480 94° East 568 654 39,000  Level FlightAware Transoceanic
09:47AM 52.0000 -160.0000 95° East 568 654 39,000  Level FlightAware Transoceanic
09:47AM 52.0000 -160.0000 95° East 552 635 39,000  Level Oakland Oceanic (ODAPS)
09:48AM 51.9862 -159.7574 95° East 568 654 39,000  Level FlightAware Transoceanic
09:50AM 51.9500 -159.2000 96° East 550 633 39,000  Level Oakland Oceanic (ODAPS)
09:53AM 51.9073 -158.5117 96° East 552 635 39,000  Level FlightAware Transoceanic
09:54AM 51.8900 -158.2643 97° East 552 635 39,000  Level FlightAware Transoceanic
09:55AM 51.8722 -158.0170 97° East 552 635 39,000  Level FlightAware Transoceanic
09:56AM 51.8483 -157.7239 97° East 550 633 39,000  Level FlightAware Transoceanic
09:57AM 51.8295 -157.4785 97° East 550 633 39,000  Level FlightAware Transoceanic
09:58AM 51.8103 -157.2334 97° East 550 633 39,000  Level FlightAware Transoceanic
09:59AM 51.7905 -156.9885 98° East 550 633 39,000  Level FlightAware Transoceanic
10:00AM 51.7702 -156.7438 98° East 550 633 39,000  Level FlightAware Transoceanic
10:01AM 51.7495 -156.4993 98° East 550 633 39,000  Level FlightAware Transoceanic
10:02AM 51.7282 -156.2550 98° East 550 633 39,000  Level FlightAware Transoceanic
10:03AM 51.7064 -156.0110 98° East 550 633 39,000  Level FlightAware Transoceanic
10:04AM 51.6841 -155.7672 98° East 550 633 39,000 1,680 Level FlightAware Transoceanic
10:04AM 51.6833 -155.8000 98° East 535 616 41,000  Climbing Oakland Oceanic (ODAPS)
10:05AM 51.6613 -155.5237 99° East 550 633 39,000 -1,140 Descending FlightAware Transoceanic
10:06AM 51.6380 -155.2803 99° East 550 633 39,000  Level FlightAware Transoceanic
10:07AM 51.6142 -155.0373 99° East 550 633 39,000  Level FlightAware Transoceanic
10:08AM 51.5898 -154.7945 99° East 550 633 39,000  Level FlightAware Transoceanic
10:09AM 51.5650 -154.5520 99° East 550 633 39,000 960 Level FlightAware Transoceanic
10:10AM 51.5456 -154.3927 100° East 535 616 41,000 960 Climbing FlightAware Transoceanic
10:11AM 51.5210 -154.1590 100° East 535 616 41,000  Level FlightAware Transoceanic
10:12AM 51.4959 -153.9256 100° East 535 616 41,000  Level FlightAware Transoceanic
10:13AM 51.4704 -153.6924 100° East 535 616 41,000  Level FlightAware Transoceanic
10:14AM 51.4444 -153.4595 100° East 535 616 41,000  Level FlightAware Transoceanic
10:15AM 51.4180 -153.2268 100° East 535 616 41,000  Level FlightAware Transoceanic
10:16AM 51.3911 -152.9944 101° East 535 616 41,000  Level FlightAware Transoceanic
10:17AM 51.3637 -152.7623 101° East 535 616 41,000  Level FlightAware Transoceanic
10:18AM 51.3359 -152.5305 101° East 535 616 41,000  Level FlightAware Transoceanic
10:18AM 51.3500 -152.6167 101° East 526 605 41,000  Level Oakland Oceanic (ODAPS)
10:19AM 51.3077 -152.2990 101° East 535 616 41,000  Level FlightAware Transoceanic
10:20AM 51.2789 -152.0677 101° East 535 616 41,000  Level FlightAware Transoceanic
10:21AM 51.2497 -151.8368 102° East 535 616 41,000  Level FlightAware Transoceanic
10:22AM 51.2201 -151.6061 102° East 535 616 41,000  Level FlightAware Transoceanic
10:23AM 51.1900 -151.3757 102° East 535 616 41,000  Level FlightAware Transoceanic
10:24AM 51.1663 -151.1845 102° East 526 605 41,000  Level FlightAware Transoceanic
10:25AM 51.1340 -150.9469 102° East 526 605 41,000  Level FlightAware Transoceanic
10:26AM 51.1012 -150.7097 103° East 526 605 41,000  Level FlightAware Transoceanic
10:27AM 51.0680 -150.4728 103° East 526 605 41,000  Level FlightAware Transoceanic
10:28AM 51.0342 -150.2362 103° East 526 605 41,000  Level FlightAware Transoceanic
10:29AM 51.0000 -150.0000 103° East 526 605 41,000  Level FlightAware Transoceanic
10:29AM 51.0000 -150.0000 103° East 521 600 41,000  Level Oakland Oceanic (ODAPS)
10:30AM 50.9673 -149.7836 104° East 526 605 41,000  Level FlightAware Transoceanic
10:31AM 50.9342 -149.5674 104° East 526 605 41,000  Level FlightAware Transoceanic
10:31AM 50.9167 -149.4667 104° East 524 603 41,000  Level Oakland Oceanic (ODAPS)
10:32AM 50.9007 -149.3516 104° East 526 605 41,000  Level FlightAware Transoceanic
10:33AM 50.8669 -149.1361 104° East 526 605 41,000  Level FlightAware Transoceanic
10:34AM 50.8326 -148.9209 104° East 526 605 41,000  Level FlightAware Transoceanic
10:35AM 50.7934 -148.6787 104° East 521 600 41,000  Level FlightAware Transoceanic
10:36AM 50.7576 -148.4596 105° East 521 600 41,000  Level FlightAware Transoceanic
10:37AM 50.7213 -148.2409 105° East 521 600 41,000  Level FlightAware Transoceanic
10:38AM 50.7015 -148.1328 105° East 524 603 41,000  Level FlightAware Transoceanic
10:39AM 50.6642 -147.9116 105° East 524 603 41,000  Level FlightAware Transoceanic
10:40AM 50.6264 -147.6909 105° East 524 603 41,000  Level FlightAware Transoceanic
10:41AM 50.5882 -147.4705 105° East 524 603 41,000  Level FlightAware Transoceanic
10:42AM 50.5496 -147.2504 106° East 524 603 41,000  Level FlightAware Transoceanic
10:43AM 50.5106 -147.0307 106° East 524 603 41,000  Level FlightAware Transoceanic
10:44AM 50.4712 -146.8114 106° East 524 603 41,000  Level FlightAware Transoceanic
10:45AM 50.4314 -146.5925 106° East 524 603 41,000  Level FlightAware Transoceanic
10:45AM 50.4000 -146.4167 106° East 521 600 41,000  Level Oakland Oceanic (ODAPS)
10:46AM 50.3912 -146.3739 106° East 524 603 41,000  Level FlightAware Transoceanic
10:47AM 50.3505 -146.1557 106° East 524 603 41,000  Level FlightAware Transoceanic
10:48AM 50.3095 -145.9379 107° East 524 603 41,000  Level FlightAware Transoceanic
10:49AM 50.2680 -145.7204 107° East 524 603 41,000  Level FlightAware Transoceanic
10:50AM 50.2262 -145.5033 107° East 524 603 41,000  Level FlightAware Transoceanic
10:51AM 50.1839 -145.2867 107° East 524 603 41,000  Level FlightAware Transoceanic
10:52AM 50.1487 -145.1042 107° East 521 600 41,000  Level FlightAware Transoceanic
10:53AM 50.1054 -144.8868 107° East 521 600 41,000  Level FlightAware Transoceanic
10:54AM 50.0616 -144.6698 108° East 521 600 41,000  Level FlightAware Transoceanic
10:55AM 50.0175 -144.4532 108° East 521 600 41,000  Level FlightAware Transoceanic
10:56AM 49.9730 -144.2370 108° East 521 600 41,000  Level FlightAware Transoceanic
10:57AM 49.9280 -144.0212 108° East 521 600 41,000  Level FlightAware Transoceanic
10:58AM 49.8827 -143.8058 108° East 521 600 41,000  Level FlightAware Transoceanic
10:59AM 49.8370 -143.5908 108° East 521 600 41,000  Level FlightAware Transoceanic
10:59AM 49.8167 -143.4667 109° East 520 598 41,000  Level Oakland Oceanic (ODAPS)
11:00AM 49.7908 -143.3762 109° East 521 600 41,000  Level FlightAware Transoceanic
11:01AM 49.7443 -143.1621 109° East 521 600 41,000  Level FlightAware Transoceanic
11:02AM 49.6974 -142.9483 109° East 521 600 41,000  Level FlightAware Transoceanic
11:03AM 49.6501 -142.7350 109° East 521 600 41,000  Level FlightAware Transoceanic
11:04AM 49.6024 -142.5220 109° East 521 600 41,000  Level FlightAware Transoceanic
11:05AM 49.5543 -142.3095 109° East 521 600 41,000  Level FlightAware Transoceanic
11:06AM 49.4930 -142.0253 110° East 520 598 41,000  Level FlightAware Transoceanic
11:07AM 49.4453 -141.8209 110° East 520 598 41,000  Level FlightAware Transoceanic
11:08AM 49.3972 -141.6170 110° East 520 598 41,000  Level FlightAware Transoceanic
11:09AM 49.3488 -141.4135 110° East 520 598 41,000  Level FlightAware Transoceanic
11:10AM 49.3000 -141.2103 110° East 520 598 41,000  Level FlightAware Transoceanic
11:11AM 49.2509 -141.0076 110° East 520 598 41,000  Level FlightAware Transoceanic
11:12AM 49.2014 -140.8053 111° Southeast 520 598 41,000  Level FlightAware Transoceanic
11:13AM 49.1516 -140.6033 111° Southeast 520 598 41,000  Level FlightAware Transoceanic
11:13AM 49.1500 -140.6167 110° East 511 588 41,000  Level Oakland Oceanic (ODAPS)
11:14AM 49.1014 -140.4018 111° Southeast 520 598 41,000  Level FlightAware Transoceanic
11:15AM 49.0509 -140.2007 111° Southeast 520 598 41,000  Level FlightAware Transoceanic
11:16AM 49.0000 -140.0000 122° Southeast 520 598 41,000  Level FlightAware Transoceanic
11:16AM 49.0000 -140.0000 122° Southeast 519 597 41,000  Level Oakland Oceanic (ODAPS)
11:17AM 48.9229 -139.8147 122° Southeast 520 598 41,000  Level FlightAware Transoceanic
11:18AM 48.8456 -139.6300 123° Southeast 520 598 41,000  Level FlightAware Transoceanic
11:19AM 48.7679 -139.4458 123° Southeast 520 598 41,000  Level FlightAware Transoceanic
11:20AM 48.6952 -139.2745 123° Southeast 511 588 41,000  Level FlightAware Transoceanic
11:21AM 48.6183 -139.0945 123° Southeast 511 588 41,000  Level FlightAware Transoceanic
11:22AM 48.5332 -138.8968 123° Southeast 519 597 41,000  Level FlightAware Transoceanic
11:23AM 48.4544 -138.7149 123° Southeast 519 597 41,000  Level FlightAware Transoceanic
11:24AM 48.3753 -138.5336 123° Southeast 519 597 41,000  Level FlightAware Transoceanic
11:25AM 48.2960 -138.3529 124° Southeast 519 597 41,000  Level FlightAware Transoceanic
11:26AM 48.2163 -138.1727 124° Southeast 519 597 41,000  Level FlightAware Transoceanic
11:27AM 48.1364 -137.9931 124° Southeast 519 597 41,000  Level FlightAware Transoceanic
11:27AM 48.1667 -138.0500 124° Southeast 524 603 41,000  Level Oakland Oceanic (ODAPS)
11:28AM 48.0561 -137.8140 124° Southeast 519 597 41,000  Level FlightAware Transoceanic
11:29AM 47.9756 -137.6355 124° Southeast 519 597 41,000  Level FlightAware Transoceanic
11:30AM 47.8949 -137.4575 124° Southeast 519 597 41,000  Level FlightAware Transoceanic
11:31AM 47.8138 -137.2801 124° Southeast 519 597 41,000  Level FlightAware Transoceanic
11:32AM 47.7325 -137.1033 124° Southeast 519 597 41,000  Level FlightAware Transoceanic
11:33AM 47.6779 -136.9758 125° Southeast 524 603 41,000  Level FlightAware Transoceanic
11:34AM 47.5955 -136.7988 125° Southeast 524 603 41,000  Level FlightAware Transoceanic
11:35AM 47.5128 -136.6222 125° Southeast 524 603 41,000  Level FlightAware Transoceanic
11:36AM 47.4298 -136.4463 125° Southeast 524 603 41,000  Level FlightAware Transoceanic
11:37AM 47.3465 -136.2709 125° Southeast 524 603 41,000  Level FlightAware Transoceanic
11:38AM 47.2630 -136.0961 125° Southeast 524 603 41,000  Level FlightAware Transoceanic
11:39AM 47.1793 -135.9218 125° Southeast 524 603 41,000  Level FlightAware Transoceanic
11:40AM 47.0952 -135.7480 125° Southeast 524 603 41,000  Level FlightAware Transoceanic
11:41AM 47.0109 -135.5748 126° Southeast 524 603 41,000  Level FlightAware Transoceanic
11:41AM 47.0167 -135.6000 126° Southeast 526 605 41,000  Level Oakland Oceanic (ODAPS)
11:42AM 46.9264 -135.4022 126° Southeast 524 603 41,000  Level FlightAware Transoceanic
11:43AM 46.8416 -135.2301 126° Southeast 524 603 41,000  Level FlightAware Transoceanic
11:44AM 46.7565 -135.0585 126° Southeast 524 603 41,000  Level FlightAware Transoceanic
11:45AM 46.6712 -134.8875 126° Southeast 524 603 41,000  Level FlightAware Transoceanic
11:46AM 46.5856 -134.7170 126° Southeast 524 603 41,000  Level FlightAware Transoceanic
11:47AM 46.5047 -134.5675 126° Southeast 526 605 41,000  Level FlightAware Transoceanic
11:48AM 46.4184 -134.3974 126° Southeast 526 605 41,000  Level FlightAware Transoceanic
11:49AM 46.3319 -134.2277 127° Southeast 526 605 41,000  Level FlightAware Transoceanic
11:50AM 46.2452 -134.0586 127° Southeast 526 605 41,000  Level FlightAware Transoceanic
11:51AM 46.1582 -133.8900 127° Southeast 526 605 41,000  Level FlightAware Transoceanic
11:52AM 46.0710 -133.7220 127° Southeast 526 605 41,000  Level FlightAware Transoceanic
11:53AM 45.9835 -133.5545 127° Southeast 526 605 41,000  Level FlightAware Transoceanic
11:54AM 45.8958 -133.3875 127° Southeast 526 605 41,000  Level FlightAware Transoceanic
11:55AM 45.8078 -133.2211 127° Southeast 526 605 41,000  Level FlightAware Transoceanic
11:55AM 45.8500 -133.2833 127° Southeast 510 587 41,000  Level Oakland Oceanic (ODAPS)
11:56AM 45.7196 -133.0552 127° Southeast 526 605 41,000  Level FlightAware Transoceanic
11:57AM 45.6312 -132.8898 127° Southeast 526 605 41,000  Level FlightAware Transoceanic
11:58AM 45.5425 -132.7249 128° Southeast 526 605 41,000  Level FlightAware Transoceanic
11:59AM 45.4536 -132.5605 128° Southeast 526 605 41,000  Level FlightAware Transoceanic
12:00PM 45.3645 -132.3967 128° Southeast 526 605 41,000  Level FlightAware Transoceanic
12:01PM 45.3311 -132.3235 128° Southeast 510 587 41,000  Level FlightAware Transoceanic
12:02PM 45.2439 -132.1653 128° Southeast 510 587 41,000  Level FlightAware Transoceanic
12:03PM 45.1564 -132.0075 128° Southeast 510 587 41,000  Level FlightAware Transoceanic
12:04PM 45.0687 -131.8502 128° Southeast 510 587 41,000  Level FlightAware Transoceanic
12:05PM 44.9808 -131.6934 128° Southeast 510 587 41,000  Level FlightAware Transoceanic
12:06PM 44.8927 -131.5371 129° Southeast 510 587 41,000  Level FlightAware Transoceanic
12:07PM 44.8043 -131.3813 129° Southeast 510 587 41,000  Level FlightAware Transoceanic
12:08PM 44.7158 -131.2259 129° Southeast 510 587 41,000  Level FlightAware Transoceanic
12:08PM 44.6167 -131.0667 129° Southeast 518 596 41,000  Level Oakland Oceanic (ODAPS)
12:09PM 44.6270 -131.0710 129° Southeast 510 587 41,000  Level FlightAware Transoceanic
12:10PM 44.5381 -130.9166 129° Southeast 510 587 41,000  Level FlightAware Transoceanic
12:11PM 44.4489 -130.7627 129° Southeast 510 587 41,000  Level FlightAware Transoceanic
12:12PM 44.3595 -130.6092 129° Southeast 510 587 41,000  Level FlightAware Transoceanic
12:13PM 44.2700 -130.4562 129° Southeast 510 587 41,000  Level FlightAware Transoceanic
12:14PM 44.1802 -130.3037 129° Southeast 510 587 41,000  Level FlightAware Transoceanic
12:15PM 44.0887 -130.1510 129° Southeast 518 596 41,000  Level FlightAware Transoceanic
12:15PM 44.0000 -130.0000 131° Southeast 536 617 41,000  Level Oakland Oceanic (ODAPS)
12:16PM 44.0000 -130.0000 131° Southeast 518 596 41,000  Level FlightAware Transoceanic
12:17PM 43.9020 -129.8434 131° Southeast 518 596 41,000  Level FlightAware Transoceanic
12:18PM 43.8039 -129.6873 131° Southeast 518 596 41,000  Level FlightAware Transoceanic
12:19PM 43.7055 -129.5318 131° Southeast 518 596 41,000  Level FlightAware Transoceanic
12:20PM 43.6069 -129.3767 131° Southeast 518 596 41,000  Level FlightAware Transoceanic
12:21PM 43.5081 -129.2222 131° Southeast 518 596 41,000  Level FlightAware Transoceanic
12:22PM 43.3415 -128.9634 132° Southeast 536 617 41,000  Level FlightAware Transoceanic
12:22PM 43.2833 -128.8833 132° Southeast 554 638 41,000  Level Oakland Oceanic (ODAPS)
12:23PM 43.2466 -128.8172 132° Southeast 536 617 41,000  Level FlightAware Transoceanic
12:24PM 43.1516 -128.6714 132° Southeast 536 617 41,000  Level FlightAware Transoceanic
12:25PM 43.0564 -128.5260 132° Southeast 536 617 41,000  Level FlightAware Transoceanic
12:26PM 42.9610 -128.3812 132° Southeast 536 617 41,000  Level FlightAware Transoceanic
12:27PM 42.8655 -128.2367 132° Southeast 536 617 41,000  Level FlightAware Transoceanic
12:28PM 42.7697 -128.0927 132° Southeast 536 617 41,000  Level FlightAware Transoceanic
12:29PM 42.6495 -127.9181 132° Southeast 554 638 41,000  Level FlightAware Transoceanic
12:30PM 42.5431 -127.7591 132° Southeast 554 638 41,000  Level FlightAware Transoceanic
12:30PM 42.4558 -127.6419 133° Southeast 588 677 41,000  Level Oakland Center
12:31PM 42.4364 -127.6007 132° Southeast 554 638 41,000  Level FlightAware Transoceanic
12:31PM 42.3550 -127.4806 130° Southeast 564 649 41,000  Level Oakland Center
12:32PM 42.3296 -127.4428 133° Southeast 554 638 41,000 -120 Level FlightAware Transoceanic
12:32PM 42.2494 -127.3239 132° Southeast 564 649 40,900  Descending Oakland Center
12:33PM 42.2225 -127.2855 133° Southeast 554 638 41,000  Climbing FlightAware Transoceanic
12:33PM 42.1403 -127.1747 135° Southeast 560 644 40,900  Descending Seattle Center
12:34PM 42.1152 -127.1287 133° Southeast 554 638 41,000  Climbing FlightAware Transoceanic
12:34PM 42.0342 -127.0228 133° Southeast 558 642 40,900  Descending Seattle Center
12:35PM 42.0077 -126.9724 133° Southeast 554 638 41,000  Climbing FlightAware Transoceanic
12:35PM 41.9297 -126.8722 133° Southeast 555 639 40,900  Descending Seattle Center
12:36PM 41.8264 -126.7239 133° Southeast 550 633 41,000  Climbing Seattle Center
12:37PM 41.7167 -126.5833 136° Southeast 547 629 40,900 -60 Descending Seattle Center
12:38PM 41.5806 -126.4206 138° Southeast 547 629 40,900  Level Oakland Center
12:39PM 41.4669 -126.2842 138° Southeast 549 632 41,000  Climbing Oakland Center
12:40PM 41.3547 -126.1497 138° Southeast 545 627 41,000 -60 Level Seattle Center
12:41PM 41.2431 -126.0133 137° Southeast 546 628 40,900  Descending Seattle Center
12:42PM 41.1294 -125.8783 138° Southeast 549 632 41,000  Climbing Seattle Center
12:43PM 41.0167 -125.7439 138° Southeast 547 629 40,900 -60 Descending Seattle Center
12:44PM 40.9047 -125.6103 138° Southeast 545 627 40,900  Level Seattle Center
12:50PM 40.2740 -124.8750 138° Southeast 537 618 41,000  Climbing FlightAware
12:51PM 40.1800 -124.7660 138° Southeast 537 618 41,000  Level FlightAware
12:52PM 40.0810 -124.6520 139° Southeast 532 612 41,000  Level FlightAware
12:52PM 40.0140 -124.5770 139° Southeast 526 605 41,000  Level FlightAware
12:53PM 39.9520 -124.5060 139° Southeast 525 604 41,000  Level FlightAware
12:53PM 39.8850 -124.4290 139° Southeast 524 603 41,000  Level FlightAware
12:54PM 39.7980 -124.3310 139° Southeast 517 595 41,000  Level FlightAware
12:55PM 39.7400 -124.2650 139° Southeast 521 600 41,000  Level FlightAware
12:55PM 39.6690 -124.1850 139° Southeast 523 602 41,000  Level FlightAware
12:56PM 39.6060 -124.1150 139° Southeast 523 602 41,000  Level FlightAware
12:56PM 39.5470 -124.0480 139° Southeast 523 602 41,000  Level FlightAware
12:57PM 39.4740 -123.9660 139° Southeast 523 602 41,000  Level FlightAware
12:58PM 39.4100 -123.8940 139° Southeast 525 604 41,000  Level FlightAware
12:58PM 39.3410 -123.8180 140° Southeast 529 609 41,000  Level FlightAware
12:59PM 39.2700 -123.7390 139° Southeast 532 612 41,000  Level FlightAware
01:00PM 39.2050 -123.6670 139° Southeast 534 615 41,000  Level FlightAware
01:00PM 39.1380 -123.5930 139° Southeast 533 613 41,000  Level FlightAware
01:01PM 39.0730 -123.5210 139° Southeast 532 612 41,000  Level FlightAware
01:01PM 39.0080 -123.4500 140° Southeast 530 610 41,000  Level FlightAware
01:02PM 38.9440 -123.3790 139° Southeast 526 605 41,000  Level FlightAware
01:02PM 38.8770 -123.3060 140° Southeast 520 598 41,000  Level FlightAware
01:03PM 38.8150 -123.2390 140° Southeast 519 597 41,000  Level FlightAware
01:04PM 38.7490 -123.1670 140° Southeast 522 601 41,000  Level FlightAware
01:04PM 38.6840 -123.0960 140° Southeast 523 602 41,000  Level FlightAware
01:05PM 38.6230 -123.0310 140° Southeast 522 601 41,000  Level FlightAware
01:05PM 38.5540 -122.9560 140° Southeast 522 601 41,000  Level FlightAware
01:06PM 38.4880 -122.8840 139° Southeast 522 601 41,000  Level FlightAware
01:06PM 38.4290 -122.8210 140° Southeast 524 603 41,000  Level FlightAware
01:07PM 38.3610 -122.7490 140° Southeast 524 603 41,000  Level FlightAware
01:08PM 38.2960 -122.6790 140° Southeast 523 602 41,000  Level FlightAware
01:08PM 38.2360 -122.6140 140° Southeast 525 604 41,000  Level FlightAware
01:09PM 38.1790 -122.5550 141° Southeast 524 603 41,000  Level FlightAware
01:09PM 38.1010 -122.4720 140° Southeast 519 597 41,000  Level FlightAware
01:10PM 38.0380 -122.4040 140° Southeast 518 596 41,000  Level FlightAware
01:11PM 37.9760 -122.3390 140° Southeast 518 596 41,000  Level FlightAware
01:11PM 37.9120 -122.2720 140° Southeast 518 596 41,000  Level FlightAware
01:12PM 37.8510 -122.2070 140° Southeast 517 595 41,000  Level FlightAware
01:12PM 37.7790 -122.1320 141° Southeast 518 596 41,000  Level FlightAware
01:13PM 37.7170 -122.0670 140° Southeast 517 595 41,000  Level FlightAware
01:13PM 37.6976 -122.0470 141° Southeast 518 596 41,000  Level FlightAware ADS-B
01:14PM 37.6279 -121.9740 140° Southeast 513 590 41,000  Level FlightAware ADS-B
01:14PM 37.5713 -121.9150 140° Southeast 512 589 41,000  Level FlightAware ADS-B
01:15PM 37.5157 -121.8570 140° Southeast 509 586 41,000  Level FlightAware ADS-B
01:15PM 37.4602 -121.7990 140° Southeast 508 585 41,000  Level FlightAware ADS-B
01:16PM 37.4055 -121.7430 141° Southeast 508 585 41,000  Level FlightAware ADS-B
01:16PM 37.3340 -121.6690 141° Southeast 508 585 41,000  Level FlightAware
01:17PM 37.3038 -121.6380 141° Southeast 509 586 41,000  Level FlightAware ADS-B
01:17PM 37.2486 -121.5810 141° Southeast 507 583 41,000  Level FlightAware ADS-B
01:18PM 37.1900 -121.5210 141° Southeast 507 583 41,000  Level FlightAware ADS-B
01:18PM 37.1274 -121.4570 141° Southeast 507 583 41,000  Level FlightAware ADS-B
01:19PM 37.0660 -121.3930 140° Southeast 506 582 41,000  Level FlightAware
01:19PM 37.0120 -121.3390 141° Southeast 506 582 41,000  Level FlightAware
01:20PM 36.9550 -121.2810 141° Southeast 506 582 41,000  Level FlightAware
01:21PM 36.8880 -121.2130 141° Southeast 503 579 41,000  Level FlightAware
01:21PM 36.8330 -121.1560 140° Southeast 504 580 41,000  Level FlightAware
01:22PM 36.7740 -121.0970 141° Southeast 506 582 41,000  Level FlightAware
01:22PM 36.7010 -121.0230 141° Southeast 503 579 41,000  Level FlightAware
01:23PM 36.6310 -120.9530 141° Southeast 501 577 41,000  Level FlightAware
01:23PM 36.5740 -120.8950 141° Southeast 499 574 41,000  Level FlightAware
01:24PM 36.5090 -120.8300 141° Southeast 498 573 41,000  Level FlightAware
01:25PM 36.4450 -120.7660 141° Southeast 496 571 41,000  Level FlightAware
01:25PM 36.3900 -120.7110 141° Southeast 494 568 41,000  Level FlightAware
01:26PM 36.3310 -120.6530 142° Southeast 494 568 41,000  Level FlightAware
01:26PM 36.2600 -120.5810 141° Southeast 495 570 41,000  Level FlightAware
01:27PM 36.1960 -120.5180 142° Southeast 495 570 41,000  Level FlightAware
01:27PM 36.1380 -120.4610 142° Southeast 496 571 41,000  Level FlightAware
01:28PM 36.0730 -120.3960 141° Southeast 497 572 41,000  Level FlightAware
01:29PM 36.0260 -120.3500 142° Southeast 499 574 41,000  Level FlightAware
01:29PM 35.9570 -120.2820 141° Southeast 502 578 41,000  Level FlightAware
01:30PM 35.8950 -120.2210 141° Southeast 501 577 41,000  Level FlightAware
01:30PM 35.8330 -120.1610 142° Southeast 502 578 41,000 -180 Level FlightAware
01:31PM 35.7690 -120.0970 141° Southeast 505 581 40,800 -960 Descending FlightAware
01:31PM 35.7160 -120.0460 142° Southeast 505 581 40,000 -1,980 Descending FlightAware
01:32PM 35.6520 -119.9850 142° Southeast 502 578 38,700 -2,220 Descending FlightAware
01:33PM 35.5880 -119.9280 144° Southeast 499 574 37,500 -2,220 Descending FlightAware
01:33PM 35.5270 -119.8750 145° Southeast 501 577 36,300 -2,160 Descending FlightAware
01:34PM 35.4490 -119.8080 145° Southeast 496 571 34,800 -2,040 Descending FlightAware
01:34PM 35.3720 -119.7410 145° Southeast 485 558 33,500 -1,920 Descending FlightAware
01:35PM 35.3170 -119.6940 145° Southeast 477 549 32,600 -1,860 Descending FlightAware
01:36PM 35.2480 -119.6350 145° Southeast 466 536 31,400 -1,860 Descending FlightAware
01:36PM 35.1980 -119.5920 145° Southeast 460 529 30,600 -1,800 Descending FlightAware
01:37PM 35.1390 -119.5410 145° Southeast 451 519 29,500 -1,800 Descending FlightAware
01:37PM 35.0840 -119.4950 146° Southeast 444 511 28,600 -1,860 Descending FlightAware
01:38PM 34.9980 -119.4210 145° Southeast 435 501 27,000 -1,800 Descending FlightAware
01:39PM 34.9460 -119.3770 145° Southeast 429 494 26,100 -1,740 Descending FlightAware
01:39PM 34.8850 -119.3250 145° Southeast 422 486 25,000 -1,860 Descending FlightAware
01:40PM 34.8340 -119.2820 145° Southeast 419 482 24,000 -900 Descending FlightAware
01:40PM 34.7730 -119.2310 146° Southeast 419 482 23,900 -1,740 Descending FlightAware
01:41PM 34.7060 -119.1740 145° Southeast 429 494 21,800 -2,940 Descending FlightAware
01:41PM 34.6620 -119.1370 145° Southeast 426 490 20,900 -1,860 Descending FlightAware
01:42PM 34.6020 -119.0870 146° Southeast 418 481 19,800 -1,860 Descending FlightAware
01:43PM 34.5520 -119.0450 145° Southeast 412 474 18,800 -1,980 Descending FlightAware
01:43PM 34.4940 -118.9960 145° Southeast 403 464 17,600 -1,920 Descending FlightAware
01:44PM 34.4410 -118.9520 146° Southeast 397 457 16,500 -1,800 Descending FlightAware
01:44PM 34.3910 -118.9100 145° Southeast 390 449 15,500 -1,860 Descending FlightAware
01:45PM 34.3420 -118.8770 151° Southeast 381 438 14,600 -1,920 Descending FlightAware
01:45PM 34.2850 -118.8550 162° South 374 430 13,500 -1,920 Descending FlightAware
01:46PM 34.2330 -118.8360 163° South 372 428 12,500 -1,380 Descending FlightAware
01:47PM 34.1840 -118.8180 163° South 352 405 12,100 -720 Descending FlightAware
01:47PM 34.1410 -118.8020 163° South 338 389 11,800 -900 Descending FlightAware
01:48PM 34.0890 -118.7830 163° South 320 368 11,200 -960 Descending FlightAware
01:48PM 34.0600 -118.7670 155° Southeast 317 365 10,900 -780 Descending FlightAware
01:48PM 34.0430 -118.7430 131° Southeast 317 365 10,700 -900 Descending FlightAware
01:48PM 34.0370 -118.7260 113° Southeast 314 361 10,500 -900 Descending FlightAware
01:49PM 34.0340 -118.7100 103° East 314 361 10,400 -720 Descending FlightAware
01:49PM 34.0280 -118.6530 97° East 312 359 10,000 -1,020 Descending FlightAware
01:49PM 34.0250 -118.6170 96° East 313 360 9,500 -1,260 Descending FlightAware
01:50PM 34.0210 -118.5760 97° East 307 353 9,100 -1,020 Descending FlightAware
01:50PM 34.0180 -118.5430 96° East 302 348 8,800 -960 Descending FlightAware
01:50PM 34.0160 -118.5210 96° East 299 344 8,600 -1,020 Descending FlightAware
01:51PM 34.0140 -118.4930 95° East 295 339 8,300 -1,200 Descending FlightAware
01:51PM 34.0110 -118.4610 96° East 293 337 7,900 -1,200 Descending FlightAware
01:51PM 34.0130 -118.4180 87° East 293 337 7,400 -1,020 Descending FlightAware
01:52PM 34.0160 -118.3870 83° East 286 329 7,100 -1,020 Descending FlightAware
01:52PM 34.0200 -118.3530 82° East 283 326 6,700 -1,380 Descending FlightAware
01:52PM 34.0220 -118.3270 85° East 277 319 6,300 -1,800 Descending FlightAware
01:53PM 34.0250 -118.3070 80° East 274 315 5,800 -2,340 Descending FlightAware
01:53PM 34.0280 -118.2780 83° East 268 308 5,100 -2,160 Descending FlightAware
01:53PM 34.0320 -118.2440 82° East 254 292 4,300 -2,220 Descending FlightAware
01:54PM 34.0350 -118.2170 82° East 251 289 3,500 -2,340 Descending FlightAware
01:54PM 34.0380 -118.1900 82° East 247 284 2,800 -1,320 Descending FlightAware
01:54PM 34.0420 -118.1620 80° East 219 252 2,600 -300 Descending FlightAware
01:55PM 34.0440 -118.1410 83° East 188 216 2,600  Level FlightAware
01:55PM 34.0370 -118.1210 113° Southeast 186 214 2,600  Level FlightAware
01:55PM 34.0300 -118.1170 155° Southeast 185 213 2,600  Level FlightAware
01:56PM 34.0140 -118.1110 163° South 184 212 2,600  Level FlightAware
01:56PM 34.0020 -118.1070 165° South 170 196 2,600  Level FlightAware
01:56PM 33.9990 -118.1070 180° South 168 193 2,600  Level FlightAware
01:56PM 33.9840 -118.1170 209° Southwest 168 193 2,600  Level FlightAware
01:56PM 33.9810 -118.1240 243° Southwest 169 194 2,600  Level FlightAware
01:56PM 33.9790 -118.1320 253° West 168 193 2,600 -480 Level FlightAware
01:57PM 33.9770 -118.1480 261° West 165 190 2,400 -780 Descending FlightAware
01:57PM 33.9760 -118.1620 265° West 164 189 2,200 -360 Descending FlightAware
01:57PM 33.9740 -118.1820 263° West 168 193 2,200  Level FlightAware
01:58PM 33.9720 -118.2070 264° West 168 193 2,200  Level FlightAware
01:58PM 33.9700 -118.2230 261° West 166 191 2,200  Level FlightAware
01:59PM 33.9670 -118.2540 263° West 166 191 2,200 -240 Level FlightAware
01:59PM 33.9640 -118.2880 264° West 162 186 2,000 -540 Descending FlightAware
02:00PM 33.9620 -118.3070 263° West 159 183 1,700 -900 Descending FlightAware
02:00PM 33.9600 -118.3190 259° West 149 171 1,500 -720 Descending FlightAware
02:00PM 33.9590 -118.3330 265° West 148 170 1,300 -360 Descending FlightAware
02:01PM 33.9570 -118.3550 264° West 147 169 1,200 -840 Descending FlightAware
02:01PM 33.9500 -118.3833 264° West 141 162 400 -840 Descending Southern California TRACON
02:02PM 33.9508 -118.4225 271° West 148 170 100 -360 Descending Los Angeles Center